createdAt,value
2018-12-11T00:00:43.953Z,-21104.93
2018-12-11T00:03:11.478Z,-21106.21
2018-12-11T00:05:38.882Z,-21114.04
2018-12-11T00:08:06.297Z,-21125.71
2018-12-11T00:10:33.690Z,-21110.63
2018-12-11T00:13:01.076Z,-21101.37
2018-12-11T00:15:28.541Z,-21121.44
2018-12-11T00:17:55.958Z,-21112.34
2018-12-11T00:20:23.398Z,-21115.32
2018-12-11T00:22:50.796Z,-21108.49
2018-12-11T00:25:18.185Z,-21103.65
2018-12-11T00:27:45.589Z,-21110.05
2018-12-11T00:30:13.042Z,-21105.79
2018-12-11T00:32:40.495Z,-21117.74
2018-12-11T00:35:07.968Z,-21130.27
2018-12-11T00:37:35.377Z,-21114.47
2018-12-11T00:40:02.910Z,-21118.03
2018-12-11T00:42:30.660Z,-21099.80
2018-12-11T00:44:58.080Z,-21136.38
2018-12-11T00:47:25.509Z,-21135.53
2018-12-11T00:49:52.936Z,-21132.97
2018-12-11T00:52:20.421Z,-21134.54
2018-12-11T00:54:47.824Z,-21117.88
2018-12-11T00:57:15.203Z,-21124.29
2018-12-11T00:59:42.605Z,-21129.27
2018-12-11T01:02:10.009Z,-21130.55
2018-12-11T01:04:37.438Z,-21133.40
2018-12-11T01:07:04.894Z,-21137.67
2018-12-11T01:09:32.357Z,-21119.45
2018-12-11T01:11:59.729Z,-21116.75
2018-12-11T01:14:27.175Z,-21108.21
2018-12-11T01:16:54.575Z,-21123.44
2018-12-11T01:19:21.997Z,-21108.06
2018-12-11T01:21:49.394Z,-21122.73
2018-12-11T01:24:16.778Z,-21131.69
2018-12-11T01:26:44.170Z,-21116.46
2018-12-11T01:29:11.605Z,-21124.72
2018-12-11T01:31:39.003Z,-21119.88
2018-12-11T01:34:06.386Z,-21118.60
2018-12-11T01:36:33.776Z,-21136.53
2018-12-11T01:39:01.164Z,-21132.54
2018-12-11T01:41:28.552Z,-21115.75
2018-12-11T01:43:55.934Z,-21114.47
2018-12-11T01:46:23.368Z,-21133.54
2018-12-11T01:48:50.747Z,-21132.54
2018-12-11T01:51:18.150Z,-21117.74
2018-12-11T01:53:45.549Z,-21120.59
2018-12-11T01:56:12.960Z,-21127.71
2018-12-11T01:58:40.418Z,-21134.25
2018-12-11T02:01:07.819Z,-21122.44
2018-12-11T02:03:35.214Z,-21109.91
2018-12-11T02:06:02.614Z,-21133.54
2018-12-11T02:08:30.009Z,-21128.70
2018-12-11T02:10:57.521Z,-21119.17
2018-12-11T02:13:25.007Z,-21102.51
2018-12-11T02:15:52.453Z,-21103.65
2018-12-11T02:18:19.841Z,-21099.94
2018-12-11T02:20:47.229Z,-21101.94
2018-12-11T02:23:14.621Z,-21102.65
2018-12-11T02:25:42.115Z,-21082.70
2018-12-11T02:28:09.565Z,-21092.68
2018-12-11T02:30:36.976Z,-21101.80
2018-12-11T02:33:04.448Z,-21096.81
2018-12-11T02:35:31.913Z,-21104.93
2018-12-11T02:37:59.290Z,-21097.52
2018-12-11T02:40:26.689Z,-21106.64
2018-12-11T02:42:54.083Z,-21106.07
2018-12-11T02:45:21.541Z,-21102.93
2018-12-11T02:47:48.949Z,-21088.83
2018-12-11T02:50:16.336Z,-21100.94
2018-12-11T02:52:43.734Z,-21107.63
2018-12-11T02:55:11.139Z,-21107.06
2018-12-11T02:57:38.605Z,-21098.09
2018-12-11T03:00:07.307Z,-21104.36
2018-12-11T03:02:34.765Z,-21096.81
2018-12-11T03:05:02.158Z,-21103.36
2018-12-11T03:07:29.640Z,-21108.92
2018-12-11T03:09:57.041Z,-21107.49
2018-12-11T03:12:24.434Z,-21119.45
2018-12-11T03:14:51.835Z,-21105.50
2018-12-11T03:17:19.392Z,-21092.54
2018-12-11T03:19:46.879Z,-21096.53
2018-12-11T03:22:14.293Z,-21102.23
2018-12-11T03:24:41.679Z,-21113.34
2018-12-11T03:27:09.065Z,-21097.38
2018-12-11T03:29:36.461Z,-21100.94
2018-12-11T03:32:03.946Z,-21104.65
2018-12-11T03:37:08.665Z,-21096.53
2018-12-11T03:39:36.072Z,-21100.09
2018-12-11T03:42:03.541Z,-21108.35
2018-12-11T03:44:30.946Z,-21106.36
2018-12-11T03:46:58.341Z,-21099.94
2018-12-11T03:49:25.807Z,-21085.13
2018-12-11T03:51:53.209Z,-21096.96
2018-12-11T03:54:20.633Z,-21090.11
2018-12-11T03:56:48.017Z,-21104.79
2018-12-11T03:59:15.451Z,-21116.18
2018-12-11T04:01:42.955Z,-21096.67
2018-12-11T04:04:10.363Z,-21077.43
2018-12-11T04:06:37.741Z,-21106.93
2018-12-11T04:09:06.145Z,-21097.95
2018-12-11T04:11:33.529Z,-21106.36
2018-12-11T04:14:01.013Z,-21090.83
2018-12-11T04:16:28.417Z,-21102.08
2018-12-11T04:18:55.862Z,-21094.25
2018-12-11T04:21:23.242Z,-21089.97
2018-12-11T04:23:50.724Z,11477.61
2018-12-11T04:26:18.197Z,3106.24
2018-12-11T04:28:45.619Z,8615.08
2018-12-11T04:31:12.998Z,-19032.41
2018-12-11T04:33:40.374Z,-21088.41
2018-12-11T04:36:07.846Z,-12798.55
2018-12-11T04:38:35.233Z,111.07
2018-12-11T04:41:02.609Z,21420.90
2018-12-11T04:43:29.998Z,-14542.59
2018-12-11T04:45:57.390Z,-7283.37
2018-12-11T04:48:24.778Z,62724.43
2018-12-11T04:50:52.266Z,67175.48
2018-12-11T04:53:19.661Z,63086.51
2018-12-11T04:55:47.064Z,47915.55
2018-12-11T04:58:14.456Z,39404.35
2018-12-11T05:00:41.858Z,41506.66
2018-12-11T05:03:09.245Z,38001.33
2018-12-11T05:05:36.622Z,35269.13
2018-12-11T05:08:06.134Z,44649.52
2018-12-11T05:10:33.509Z,35753.36
2018-12-11T05:13:00.897Z,41784.74
2018-12-11T05:15:28.289Z,43370.53
2018-12-11T05:17:55.689Z,32889.96
2018-12-11T05:20:23.081Z,17158.06
2018-12-11T05:22:50.461Z,30980.78
2018-12-11T05:25:17.867Z,12121.55
2018-12-11T05:27:45.261Z,-21101.94
2018-12-11T05:30:12.682Z,11016.28
2018-12-11T05:32:40.106Z,-21104.79
2018-12-11T05:35:07.834Z,-21105.50
2018-12-11T05:37:35.239Z,-21107.06
2018-12-11T05:40:02.611Z,-20994.09
2018-12-11T05:42:30.029Z,-17843.84
2018-12-11T05:44:57.414Z,-21095.39
2018-12-11T05:47:24.818Z,-18795.73
2018-12-11T05:49:52.202Z,-21107.35
2018-12-11T05:52:19.574Z,-3821.95
2018-12-11T05:54:46.969Z,20189.05
2018-12-11T05:57:14.363Z,23677.22
2018-12-11T05:59:41.750Z,33672.85
2018-12-11T06:02:09.139Z,-21139.80
2018-12-11T06:04:36.607Z,-21131.69
2018-12-11T06:07:04.018Z,-21132.97
2018-12-11T06:09:31.405Z,-21154.88
2018-12-11T06:11:58.810Z,-21113.76
2018-12-11T06:14:26.191Z,13580.65
2018-12-11T06:16:53.667Z,11484.71
2018-12-11T06:19:21.083Z,-5398.33
2018-12-11T06:21:48.560Z,1068.04
2018-12-11T06:24:15.945Z,38013.52
2018-12-11T06:26:43.341Z,64562.98
2018-12-11T06:32:08.709Z,-21127.99
2018-12-11T06:34:36.551Z,-21107.35
2018-12-11T06:37:03.938Z,-21124.00
2018-12-11T06:39:31.365Z,-21122.59
2018-12-11T06:41:58.766Z,-21137.53
2018-12-11T06:44:26.193Z,-21150.18
2018-12-11T06:46:53.565Z,-21125.86
2018-12-11T06:49:20.990Z,-21157.01
2018-12-11T06:51:48.381Z,-21138.24
2018-12-11T06:54:15.770Z,-21117.46
2018-12-11T06:56:43.185Z,-21122.59
2018-12-11T06:59:10.613Z,-21110.77
2018-12-11T07:01:38.015Z,-21120.45
2018-12-11T07:04:05.439Z,-21124.86
2018-12-11T07:06:32.929Z,-21113.76
2018-12-11T07:09:00.405Z,-21137.10
2018-12-11T07:11:28.521Z,-21146.34
2018-12-11T07:13:56.011Z,-21126.29
2018-12-11T07:16:23.446Z,-21124.57
2018-12-11T07:18:50.821Z,-21127.13
2018-12-11T07:21:18.204Z,-21136.53
2018-12-11T07:23:45.697Z,-21135.25
2018-12-11T07:26:13.090Z,-21134.25
2018-12-11T07:28:40.511Z,-21113.48
2018-12-11T07:31:07.935Z,-21103.50
2018-12-11T07:33:35.397Z,-21122.44
2018-12-11T07:36:02.850Z,-21097.52
2018-12-11T07:38:30.264Z,-21104.08
2018-12-11T07:40:57.765Z,-21088.41
2018-12-11T07:43:25.185Z,-21118.60
2018-12-11T07:45:52.605Z,-21103.36
2018-12-11T07:48:19.983Z,-21124.15
2018-12-11T07:50:47.388Z,-21113.76
2018-12-11T07:53:14.781Z,-21118.88
2018-12-11T07:55:42.260Z,1534.31
2018-12-11T07:58:09.628Z,12591.13
2018-12-11T08:00:37.079Z,-15216.12
2018-12-11T08:03:04.456Z,7376.30
2018-12-11T08:05:31.919Z,47998.05
2018-12-11T08:07:59.378Z,38928.77
2018-12-11T08:10:26.798Z,22105.25
2018-12-11T08:12:54.283Z,13051.79
2018-12-11T08:15:21.697Z,53293.89
2018-12-11T08:17:49.072Z,55688.83
2018-12-11T08:20:16.571Z,50163.55
2018-12-11T08:22:43.976Z,48341.19
2018-12-11T08:25:11.358Z,26070.50
2018-12-11T08:27:38.768Z,13220.50
2018-12-11T08:30:06.708Z,37211.49
2018-12-11T08:32:34.086Z,5006.48
2018-12-11T08:35:01.487Z,28316.36
2018-12-11T08:37:28.871Z,9751.86
2018-12-11T08:39:56.276Z,-19497.48
2018-12-11T08:42:23.660Z,-21125.57
2018-12-11T08:44:51.453Z,-21109.06
2018-12-11T08:47:24.708Z,-21109.77
2018-12-11T08:49:52.179Z,16563.52
2018-12-11T08:52:19.598Z,-16189.19
2018-12-11T08:54:47.063Z,-1614.43
2018-12-11T08:57:14.460Z,-21116.75
2018-12-11T08:59:41.852Z,-21116.89
2018-12-11T09:02:09.241Z,-10182.62
2018-12-11T09:04:36.626Z,-11338.54
2018-12-11T09:07:04.035Z,-16624.47
2018-12-11T09:09:31.461Z,-21120.87
2018-12-11T09:11:58.897Z,-21119.74
2018-12-11T09:14:26.274Z,-21120.02
2018-12-11T09:16:53.681Z,-21113.19
2018-12-11T09:19:21.071Z,-21117.18
2018-12-11T09:21:48.470Z,-21135.67
2018-12-11T09:24:15.861Z,-21117.46
2018-12-11T09:26:43.272Z,-21120.59
2018-12-11T09:29:10.731Z,-21108.06
2018-12-11T09:31:38.121Z,-21104.08
2018-12-11T09:34:05.530Z,-21100.94
2018-12-11T09:36:33.743Z,-21102.65
2018-12-11T09:39:01.126Z,-21097.52
2018-12-11T09:41:28.520Z,-21099.38
2018-12-11T09:43:56.023Z,-15377.42
2018-12-11T09:46:23.749Z,-10541.99
2018-12-11T09:48:51.135Z,-21001.96
2018-12-11T09:51:18.536Z,-21114.04
2018-12-11T09:53:45.938Z,-21106.36
2018-12-11T09:56:13.346Z,-21109.63
2018-12-11T09:58:40.749Z,-21112.48
2018-12-11T10:01:08.122Z,-21107.21
2018-12-11T10:03:35.633Z,-21104.93
2018-12-11T10:06:03.030Z,-9687.29
2018-12-11T10:08:30.418Z,-21116.61
2018-12-11T10:10:57.836Z,-21104.36
2018-12-11T10:13:25.241Z,-9808.54
2018-12-11T10:15:52.642Z,-15680.38
2018-12-11T10:18:20.049Z,-21109.20
2018-12-11T10:20:47.451Z,-4609.66
2018-12-11T10:23:15.465Z,-20615.98
2018-12-11T10:25:42.881Z,-20760.81
2018-12-11T10:28:10.276Z,-3191.94
2018-12-11T10:30:50.105Z,-19944.02
2018-12-11T10:33:17.567Z,-21113.34
2018-12-11T10:35:44.958Z,-21117.18
2018-12-11T10:38:12.345Z,-21113.62
2018-12-11T10:40:39.753Z,-21111.48
2018-12-11T10:43:07.230Z,-21111.91
2018-12-11T10:45:34.619Z,-21103.08
2018-12-11T10:48:02.048Z,-18749.38
2018-12-11T10:50:29.441Z,-21097.95
2018-12-11T10:52:56.888Z,-21110.77
2018-12-11T10:55:24.265Z,-21107.49
2018-12-11T10:57:51.676Z,-21131.69
2018-12-11T11:00:24.469Z,-21124.43
2018-12-11T11:02:57.400Z,-21109.49
2018-12-11T11:05:24.808Z,-21116.46
2018-12-11T11:07:52.277Z,-21115.32
2018-12-11T11:10:19.689Z,-21114.90
2018-12-11T11:12:47.148Z,-21112.48
2018-12-11T11:15:14.685Z,-21108.35
2018-12-11T11:17:42.188Z,-21122.44
2018-12-11T11:20:09.565Z,-21107.21
2018-12-11T11:22:36.968Z,-21126.00
2018-12-11T11:25:06.101Z,-21136.24
2018-12-11T11:27:33.533Z,-21124.29
2018-12-11T11:30:00.948Z,-21145.49
2018-12-11T11:32:28.309Z,-21123.58
2018-12-11T11:34:55.693Z,-21102.08
2018-12-11T11:37:23.109Z,-21107.92
2018-12-11T11:39:50.521Z,-21114.90
2018-12-11T11:42:19.065Z,-21121.87
2018-12-11T11:44:46.722Z,-21114.61
2018-12-11T11:47:14.205Z,-21113.48
2018-12-11T11:49:41.596Z,-21119.88
2018-12-11T11:52:09.045Z,-21122.44
2018-12-11T11:54:36.424Z,-21111.62
2018-12-11T11:57:03.823Z,-21121.44
2018-12-11T11:59:31.332Z,-21106.50
2018-12-11T12:01:58.768Z,-21108.06
2018-12-11T12:04:26.162Z,-21109.63
2018-12-11T12:06:53.630Z,-21111.48
2018-12-11T12:09:21.066Z,-21106.07
2018-12-11T12:11:48.473Z,-21113.90
2018-12-11T12:14:15.884Z,-21107.06
2018-12-11T12:16:43.307Z,-21110.77
2018-12-11T12:19:10.708Z,-21104.65
2018-12-11T12:21:38.105Z,-21133.25
2018-12-11T12:24:05.548Z,-21123.72
2018-12-11T12:26:32.937Z,-21121.87
2018-12-11T12:29:00.411Z,-21116.61
2018-12-11T12:31:28.151Z,-21135.96
2018-12-11T12:33:55.554Z,-21129.27
2018-12-11T12:36:23.001Z,-21128.99
2018-12-11T12:38:50.454Z,-21123.01
2018-12-11T12:41:17.836Z,-21119.45
2018-12-11T12:43:45.313Z,-21114.61
2018-12-11T12:46:12.709Z,-21128.13
2018-12-11T12:48:40.090Z,-21108.35
2018-12-11T12:51:07.474Z,-21125.43
2018-12-11T12:53:34.869Z,-21125.71
2018-12-11T12:56:02.379Z,-21127.28
2018-12-11T12:58:29.773Z,-21126.29
2018-12-11T13:01:01.276Z,-21138.52
2018-12-11T13:03:34.729Z,-21131.84
2018-12-11T13:06:02.226Z,-21143.93
2018-12-11T13:08:30.817Z,-21131.98
2018-12-11T13:10:58.974Z,-21129.70
2018-12-11T13:13:26.388Z,-21128.28
2018-12-11T13:15:53.839Z,-21127.71
2018-12-11T13:18:21.220Z,-21148.76
2018-12-11T13:20:48.608Z,-21165.39
2018-12-11T13:23:16.005Z,-21177.74
2018-12-11T13:25:43.421Z,-21174.05
2018-12-11T13:28:10.808Z,-21175.05
2018-12-11T13:30:38.199Z,-21171.07
2018-12-11T13:33:05.673Z,-21178.03
2018-12-11T13:35:33.081Z,-21192.65
2018-12-11T13:38:00.483Z,-21172.92
2018-12-11T13:40:28.128Z,-21181.73
2018-12-11T13:42:55.586Z,-21182.86
2018-12-11T13:45:22.993Z,-21184.14
2018-12-11T13:47:50.476Z,-21190.52
2018-12-11T13:50:17.963Z,-21196.35
2018-12-11T13:52:45.366Z,-21175.05
2018-12-11T13:55:12.768Z,-21142.79
2018-12-11T13:57:40.250Z,-21152.89
2018-12-11T14:00:08.001Z,-21184.56
2018-12-11T14:02:35.397Z,-21185.98
2018-12-11T14:05:02.869Z,-21182.43
2018-12-11T14:07:30.302Z,-21186.41
2018-12-11T14:09:57.709Z,-21189.82
2018-12-11T14:12:25.192Z,-21152.74
2018-12-11T14:14:52.700Z,-21193.51
2018-12-11T14:17:20.158Z,-21163.54
2018-12-11T14:19:47.533Z,-21197.48
2018-12-11T14:22:14.939Z,-21202.87
2018-12-11T14:24:42.344Z,-21157.71
2018-12-11T14:27:09.737Z,-21162.69
2018-12-11T14:29:37.134Z,-21159.84
2018-12-11T14:32:04.698Z,-21151.74
2018-12-11T14:34:32.110Z,-21158.71
2018-12-11T14:36:59.574Z,-21164.96
2018-12-11T14:39:26.955Z,-21155.30
2018-12-11T14:41:54.369Z,-21161.70
2018-12-11T14:44:21.767Z,-21142.93
2018-12-11T14:46:49.177Z,-21145.92
2018-12-11T14:49:16.590Z,-21143.08
2018-12-11T14:51:43.987Z,-21137.96
2018-12-11T14:54:17.185Z,-21147.91
2018-12-11T14:56:48.599Z,-21146.77
2018-12-11T14:59:17.301Z,-21146.91
2018-12-11T15:01:44.719Z,-21142.93
2018-12-11T15:04:12.121Z,-21131.84
2018-12-11T15:06:39.505Z,-21115.90
2018-12-11T15:09:12.904Z,-21116.75
2018-12-11T15:11:40.401Z,-21126.71
2018-12-11T15:14:07.802Z,-21113.76
2018-12-11T15:16:35.878Z,-21108.49
2018-12-11T15:19:03.366Z,-21118.60
2018-12-11T15:21:30.765Z,-21125.71
2018-12-11T15:24:02.199Z,-21116.18
2018-12-11T15:26:29.751Z,-21112.62
2018-12-11T15:28:57.133Z,-21117.74
2018-12-11T15:31:24.522Z,-21107.21
2018-12-11T15:33:51.911Z,-21104.08
2018-12-11T15:36:19.316Z,-21112.34
2018-12-11T15:38:46.713Z,-21102.93
2018-12-11T15:41:14.093Z,-21112.91
2018-12-11T15:43:41.492Z,-21102.79
2018-12-11T15:46:08.899Z,-21120.16
2018-12-11T15:48:36.281Z,-21114.18
2018-12-11T15:51:03.681Z,-21133.11
2018-12-11T15:53:31.074Z,-21141.93
2018-12-11T15:55:58.488Z,-21139.23
2018-12-11T15:58:25.960Z,-21122.16
2018-12-11T16:00:53.341Z,-21130.13
2018-12-11T16:03:20.756Z,-21129.55
2018-12-11T16:05:48.168Z,-21149.33
2018-12-11T16:08:15.575Z,-21132.12
2018-12-11T16:10:42.980Z,-21126.71
2018-12-11T16:13:11.346Z,-21131.98
2018-12-11T16:15:38.746Z,-21127.13
2018-12-11T16:18:06.127Z,-21126.85
2018-12-11T16:20:33.515Z,-21127.13
2018-12-11T16:23:00.913Z,-21129.84
2018-12-11T16:25:28.323Z,-21126.29
2018-12-11T16:30:34.071Z,-21142.22
2018-12-11T16:33:01.483Z,-21108.92
2018-12-11T16:35:28.883Z,-21125.71
2018-12-11T16:37:56.334Z,-21128.85
2018-12-11T16:40:23.714Z,-21103.65
2018-12-11T16:42:51.350Z,-21122.59
2018-12-11T16:45:18.734Z,-21124.86
2018-12-11T16:47:46.210Z,-21131.41
2018-12-11T16:50:13.589Z,-21113.19
2018-12-11T16:52:41.035Z,-21115.47
2018-12-11T16:55:08.508Z,-21093.54
2018-12-11T16:57:35.930Z,-21088.27
2018-12-11T17:00:05.356Z,-21116.75
2018-12-11T17:02:32.763Z,-21118.03
2018-12-11T17:05:00.193Z,-21103.65
2018-12-11T17:07:27.587Z,-21106.36
2018-12-11T17:09:55.004Z,-21106.36
2018-12-11T17:12:22.557Z,-21099.94
2018-12-11T17:14:49.971Z,-21091.11
2018-12-11T17:17:17.474Z,-21094.39
2018-12-11T17:19:44.874Z,-21083.55
2018-12-11T17:22:12.266Z,-21098.37
2018-12-11T17:24:39.692Z,-21111.34
2018-12-11T17:27:07.121Z,-21090.11
2018-12-11T17:29:34.623Z,-21083.55
2018-12-11T17:32:02.172Z,-21104.65
2018-12-11T17:34:29.568Z,-21106.93
2018-12-11T17:36:56.970Z,-21113.62
2018-12-11T17:39:24.374Z,-21115.47
2018-12-11T17:41:51.910Z,-21120.59
2018-12-11T17:44:19.335Z,-21115.18
2018-12-11T17:46:58.155Z,-21097.52
2018-12-11T17:49:40.580Z,-21081.70
2018-12-11T17:52:08.080Z,-21078.57
2018-12-11T17:54:35.571Z,-21075.43
2018-12-11T17:57:03.964Z,-21082.13
2018-12-11T17:59:31.571Z,-21098.66
2018-12-11T18:01:59.768Z,-21107.06
2018-12-11T18:04:27.231Z,-21101.66
2018-12-11T18:06:54.702Z,-21096.10
2018-12-11T18:09:22.454Z,-21097.81
2018-12-11T18:11:49.848Z,-21088.69
2018-12-11T18:14:17.318Z,-21074.57
2018-12-11T18:16:44.737Z,-21066.87
2018-12-11T18:19:12.399Z,-21088.83
2018-12-11T18:21:39.960Z,-21080.13
2018-12-11T18:24:07.343Z,-21086.98
2018-12-11T18:26:34.740Z,-21085.70
2018-12-11T18:29:02.173Z,-21077.71
2018-12-11T18:31:29.562Z,-21079.00
2018-12-11T18:33:56.989Z,-21073.29
2018-12-11T18:36:24.477Z,-21074.29
2018-12-11T18:38:52.369Z,-21093.96
2018-12-11T18:41:19.908Z,-21086.70
2018-12-11T18:43:47.925Z,-21076.14
2018-12-11T18:46:15.351Z,-21095.53
2018-12-11T18:48:42.870Z,-21100.52
2018-12-11T18:51:10.307Z,-21092.11
2018-12-11T18:53:37.711Z,-21100.94
2018-12-11T18:56:06.920Z,-21077.85
2018-12-11T18:58:34.507Z,-21088.97
2018-12-11T19:01:02.024Z,-21087.55
2018-12-11T19:03:29.402Z,-21084.27
2018-12-11T19:05:57.064Z,-21083.55
2018-12-11T19:08:24.520Z,-21081.27
2018-12-11T19:10:51.971Z,-21072.15
2018-12-11T19:13:19.370Z,-21084.27
2018-12-11T19:15:46.845Z,-21083.70
2018-12-11T19:18:14.331Z,-21085.13
2018-12-11T19:20:41.781Z,-21082.27
2018-12-11T19:23:13.133Z,-21078.14
2018-12-11T19:25:40.530Z,-21074.57
2018-12-11T19:28:07.959Z,-21066.73
2018-12-11T19:30:35.418Z,-21055.60
2018-12-11T19:33:02.905Z,-21080.56
2018-12-11T19:35:33.174Z,-21078.71
2018-12-11T19:37:59.748Z,-21083.41
2018-12-11T19:40:27.289Z,-21084.41
2018-12-11T19:42:54.714Z,-21073.14
2018-12-11T19:45:22.102Z,-21074.14
2018-12-11T19:47:49.522Z,-21087.55
2018-12-11T19:50:16.962Z,-21084.41
2018-12-11T19:52:44.447Z,-21081.99
2018-12-11T19:55:11.883Z,-21087.27
2018-12-11T19:57:39.291Z,-21085.84
2018-12-11T20:00:08.620Z,-21103.36
2018-12-11T20:02:36.011Z,-21108.06
2018-12-11T20:05:04.083Z,-21099.66
2018-12-11T20:07:31.513Z,-21116.32
2018-12-11T20:10:04.577Z,-21108.92
2018-12-11T20:12:32.001Z,-21089.68
2018-12-11T20:15:04.674Z,-21091.54
2018-12-11T20:17:28.931Z,-21096.67
2018-12-11T20:19:56.454Z,-21079.00
2018-12-11T20:22:23.964Z,-21092.96
2018-12-11T20:24:51.358Z,-21089.83
2018-12-11T20:27:18.776Z,-21085.27
2018-12-11T20:29:46.175Z,-21082.13
2018-12-11T20:32:13.574Z,-21086.84
2018-12-11T20:34:40.982Z,-21080.70
2018-12-11T20:37:08.783Z,-21062.88
2018-12-11T20:39:36.179Z,-21076.71
2018-12-11T20:42:03.573Z,-21073.29
2018-12-11T20:44:30.944Z,-21061.88
2018-12-11T20:46:58.355Z,-21077.00
2018-12-11T20:49:25.797Z,-21073.57
2018-12-11T20:51:53.209Z,-21077.43
2018-12-11T20:54:20.669Z,-21081.99
2018-12-11T20:56:48.101Z,-21088.12
2018-12-11T20:59:18.611Z,-21086.27
2018-12-11T21:01:47.195Z,-21071.86
2018-12-11T21:04:14.837Z,-21080.27
2018-12-11T21:06:42.579Z,-21075.71
2018-12-11T21:09:12.209Z,-21064.02
2018-12-11T21:11:39.634Z,-6492.41
2018-12-11T21:14:08.765Z,-19342.91
2018-12-11T21:16:36.397Z,-19290.37
2018-12-11T21:19:04.243Z,-21062.59
2018-12-11T21:21:31.972Z,-21066.16
2018-12-11T21:23:59.636Z,-21062.02
2018-12-11T21:26:27.064Z,-21071.29
2018-12-11T21:28:54.468Z,-21066.59
2018-12-11T21:31:21.841Z,-19973.85
2018-12-11T21:33:49.262Z,-21077.00
2018-12-11T21:36:16.673Z,-21071.01
2018-12-11T21:38:44.111Z,-18298.87
2018-12-11T21:41:11.513Z,-21070.16
2018-12-11T21:43:38.906Z,-20336.93
2018-12-11T21:46:06.323Z,-21079.00
2018-12-11T21:48:33.781Z,-21072.57
2018-12-11T21:51:01.169Z,-21061.45
2018-12-11T21:53:28.572Z,-17465.99
2018-12-11T21:55:56.966Z,-21018.31
2018-12-11T21:58:24.345Z,-11162.55
2018-12-11T22:00:52.320Z,-21074.00
2018-12-11T22:03:20.135Z,-21079.00
2018-12-11T22:05:49.060Z,-21062.30
2018-12-11T22:08:16.684Z,2623.17
2018-12-11T22:10:44.091Z,20610.05
2018-12-11T22:13:11.514Z,16976.16
2018-12-11T22:15:38.918Z,13985.03
2018-12-11T22:18:06.331Z,-7603.20
2018-12-11T22:20:33.706Z,-7289.12
2018-12-11T22:23:01.137Z,-21060.60
2018-12-11T22:25:28.510Z,-21055.60
2018-12-11T22:27:55.966Z,-21087.27
2018-12-11T22:30:23.388Z,-21063.30
2018-12-11T22:32:50.813Z,-21077.85
2018-12-11T22:35:18.256Z,-21095.53
2018-12-11T22:37:45.648Z,-19257.48
2018-12-11T22:40:13.064Z,-21077.28
2018-12-11T22:42:40.463Z,-20778.16
2018-12-11T22:45:07.900Z,-21073.29
2018-12-11T22:47:35.343Z,-21063.73
2018-12-11T22:50:03.741Z,-21074.00
2018-12-11T22:52:31.174Z,-21076.86
2018-12-11T22:54:58.644Z,-21075.00
2018-12-11T22:57:26.079Z,-21073.00
2018-12-11T22:59:53.537Z,-21077.85
2018-12-11T23:02:20.949Z,-21089.26
2018-12-11T23:04:48.410Z,-21079.56
2018-12-11T23:07:15.860Z,-21064.88
2018-12-11T23:09:44.539Z,-21109.35
2018-12-11T23:12:12.026Z,-21094.39
2018-12-11T23:14:39.451Z,-21070.01
2018-12-11T23:17:08.042Z,-21085.84
2018-12-11T23:19:35.431Z,-21082.27
2018-12-11T23:22:02.874Z,-21072.15
2018-12-11T23:24:30.259Z,-21090.26
2018-12-11T23:26:57.776Z,-21080.99
2018-12-11T23:29:25.243Z,-21076.14
2018-12-11T23:31:52.688Z,-21066.16
2018-12-11T23:34:20.096Z,-21071.29
2018-12-11T23:36:47.478Z,-21080.56
2018-12-11T23:39:14.896Z,-21085.41
2018-12-11T23:41:42.394Z,-21084.55
2018-12-11T23:44:09.816Z,-21070.16
2018-12-11T23:46:37.230Z,-21065.30
2018-12-11T23:49:04.639Z,-12168.58
2018-12-11T23:51:32.147Z,4358.01
2018-12-11T23:53:59.560Z,-3650.07
2018-12-11T23:56:26.965Z,8927.71
2018-12-11T23:58:54.407Z,-13573.14
